RJTT

Tokyo Haneda International Airport

Airport
ICAO code
RJTT
IATA Code
HND
Summary
ICAO Region
APAC
ICAO Territory
Location

Ōta, Tokyo Metropolis

Serving
Tokyo
Elevation
21 ft
Coordinates
35° 32' 56" N , 139° 47' 2" E
KCC
Airport LOS
Parallel Runway Operation
Airport WX
Tropical Revolving Storm
Metar
Observation
RJTT 042200Z 04006KT 9999 FEW030 05/M02 Q1021 NOSIG
Station
Tokyo International Airport
Date/Time
2023-02-04 22:00:00
Wind direction
40°
Wind speed
06 kts
Lowest cloud amount
few clouds
Temperature
5°C
Dew point
-2°C
Humidity
60%
QNH
1021 hPa
Weather condition
n/a

The primary international airport serving the Greater Tokyo Area. It is located in Ōta, Tokyo, 14 km south of Tokyo Station, Japan.

Climatology

Humid subtropical climate (Köppen climate classification Cfa).

Runways

Designator Length Width Surface Rops
4/22 2499 61 ASP Yes/Yes
16L/34R 2999 61 ASP Yes/Yes
16R/34L 2999 61 ASP Yes/Yes

Airport map

Aerial View

SKYbrary Partners:

Safety knowledge contributed by: